createdAt,value
2022-12-22T00:00:33.821Z,10.89
2022-12-22T00:03:18.888Z,10.68
2022-12-22T00:06:08.419Z,10.26
2022-12-22T00:08:53.698Z,10.21
2022-12-22T00:11:39.415Z,10.13
2022-12-22T00:14:26.811Z,10.04
2022-12-22T00:17:11.656Z,10.03
2022-12-22T00:19:56.993Z,10.09
2022-12-22T00:22:44.058Z,9.97
2022-12-22T00:25:32.406Z,10.05
2022-12-22T00:28:17.411Z,10.04
2022-12-22T00:31:03.188Z,9.61
2022-12-22T00:33:48.690Z,9.87
2022-12-22T00:36:34.503Z,9.97
2022-12-22T00:39:21.065Z,9.98
2022-12-22T00:42:05.973Z,9.93
2022-12-22T00:44:50.604Z,9.99
2022-12-22T00:47:44.014Z,10.14
2022-12-22T00:50:29.909Z,10.02
2022-12-22T00:53:15.715Z,9.85
2022-12-22T00:56:02.269Z,9.96
2022-12-22T00:58:47.747Z,10.08
2022-12-22T01:01:32.733Z,10.13
2022-12-22T01:04:17.995Z,10.19
2022-12-22T01:07:03.201Z,10.19
2022-12-22T01:09:48.773Z,10.20
2022-12-22T01:12:38.733Z,10.10
2022-12-22T01:15:28.802Z,10.12
2022-12-22T01:18:13.844Z,10.09
2022-12-22T01:20:59.176Z,10.05
2022-12-22T01:23:44.532Z,10.20
2022-12-22T01:26:29.827Z,10.11
2022-12-22T01:29:16.647Z,10.09
2022-12-22T01:32:02.023Z,10.14
2022-12-22T01:34:46.853Z,9.92
2022-12-22T01:37:31.729Z,10.10
2022-12-22T01:40:16.533Z,9.98
2022-12-22T01:43:01.434Z,10.17
2022-12-22T01:45:50.506Z,10.22
2022-12-22T01:48:36.960Z,10.08
2022-12-22T01:51:25.954Z,9.93
2022-12-22T01:54:11.799Z,10.12
2022-12-22T01:56:57.600Z,9.98
2022-12-22T01:59:43.122Z,10.02
2022-12-22T02:02:30.018Z,10.09
2022-12-22T02:05:18.565Z,10.15
2022-12-22T02:08:27.493Z,10.16
2022-12-22T02:11:25.882Z,10.05
2022-12-22T02:14:29.483Z,9.73
2022-12-22T02:17:25.236Z,9.94
2022-12-22T02:20:38.535Z,10.09
2022-12-22T02:23:32.415Z,10.12
2022-12-22T02:26:23.737Z,10.07
2022-12-22T02:29:10.990Z,10.14
2022-12-22T02:31:57.315Z,10.07
2022-12-22T02:34:42.552Z,10.21
2022-12-22T02:37:46.575Z,10.18
2022-12-22T02:40:41.361Z,10.03
2022-12-22T02:43:41.129Z,10.05
2022-12-22T02:46:34.903Z,10.15
2022-12-22T02:49:29.268Z,10.18
2022-12-22T02:52:21.323Z,9.91
2022-12-22T02:55:06.061Z,10.09
2022-12-22T02:57:50.957Z,10.12
2022-12-22T03:00:36.305Z,9.42
2022-12-22T03:03:23.386Z,9.64
2022-12-22T03:06:08.687Z,10.16
2022-12-22T03:08:53.373Z,9.88
2022-12-22T03:11:38.150Z,10.20
2022-12-22T03:14:23.510Z,10.01
2022-12-22T03:17:08.197Z,10.24
2022-12-22T03:19:54.832Z,10.21
2022-12-22T03:22:40.046Z,9.93
2022-12-22T03:25:25.897Z,10.09
2022-12-22T03:27:53.335Z,10.19
2022-12-22T03:30:21.277Z,9.56
2022-12-22T03:32:48.724Z,10.14
2022-12-22T03:35:17.486Z,10.13
2022-12-22T03:37:44.878Z,10.28
2022-12-22T03:40:12.709Z,9.87
2022-12-22T03:43:03.141Z,9.89
2022-12-22T03:45:48.053Z,10.04
2022-12-22T03:48:15.527Z,10.17
2022-12-22T03:50:44.503Z,10.08
2022-12-22T03:53:11.931Z,10.22
2022-12-22T03:55:39.340Z,10.37
2022-12-22T03:58:06.782Z,10.17
2022-12-22T04:00:34.252Z,10.13
2022-12-22T04:03:01.897Z,10.24
2022-12-22T04:05:29.447Z,10.31
2022-12-22T04:07:58.253Z,10.25
2022-12-22T04:10:43.449Z,10.29
2022-12-22T04:13:10.885Z,10.26
2022-12-22T04:15:38.319Z,10.26
2022-12-22T04:18:05.874Z,10.30
2022-12-22T04:20:33.271Z,10.24
2022-12-22T04:23:02.396Z,10.36
2022-12-22T04:25:29.870Z,10.29
2022-12-22T04:27:57.332Z,10.34
2022-12-22T04:30:24.804Z,10.29
2022-12-22T04:32:52.267Z,10.26
2022-12-22T04:35:19.777Z,10.19
2022-12-22T04:37:47.198Z,10.03
2022-12-22T04:40:16.242Z,10.30
2022-12-22T04:42:43.684Z,10.28
2022-12-22T04:45:11.940Z,10.19
2022-12-22T04:47:39.754Z,9.99
2022-12-22T04:50:08.299Z,10.24
2022-12-22T04:52:35.758Z,10.17
2022-12-22T04:55:03.158Z,10.38
2022-12-22T04:57:35.469Z,10.33
2022-12-22T05:00:09.806Z,10.27
2022-12-22T05:02:37.398Z,10.31
2022-12-22T05:05:05.206Z,10.35
2022-12-22T05:07:32.620Z,10.12
2022-12-22T05:10:00.053Z,10.24
2022-12-22T05:12:44.841Z,9.93
2022-12-22T05:15:13.578Z,10.30
2022-12-22T05:17:41.077Z,10.10
2022-12-22T05:20:09.887Z,10.31
2022-12-22T05:22:37.325Z,10.30
2022-12-22T05:25:05.207Z,9.79
2022-12-22T05:27:32.666Z,10.24
2022-12-22T05:30:00.110Z,10.14
2022-12-22T05:32:29.133Z,10.40
2022-12-22T05:34:56.577Z,10.45
2022-12-22T05:37:24.111Z,10.49
2022-12-22T05:39:51.577Z,10.54
2022-12-22T05:42:35.781Z,10.47
2022-12-22T05:45:05.801Z,10.46
2022-12-22T05:47:34.641Z,10.65
2022-12-22T05:50:02.134Z,10.55
2022-12-22T05:52:29.683Z,10.61
2022-12-22T05:54:57.113Z,10.49
2022-12-22T05:57:24.735Z,10.66
2022-12-22T05:59:52.171Z,10.47
2022-12-22T06:02:19.734Z,10.58
2022-12-22T06:04:48.715Z,10.34
2022-12-22T06:07:16.160Z,10.50
2022-12-22T06:09:43.595Z,10.48
2022-12-22T06:12:11.246Z,10.52
2022-12-22T06:14:38.698Z,10.43
2022-12-22T06:17:06.433Z,10.61
2022-12-22T06:19:33.853Z,10.63
2022-12-22T06:22:02.752Z,10.58
2022-12-22T06:24:30.172Z,10.43
2022-12-22T06:26:57.608Z,10.50
2022-12-22T06:29:25.153Z,10.48
2022-12-22T06:31:52.611Z,10.55
2022-12-22T06:34:21.269Z,10.59
2022-12-22T06:36:49.252Z,10.51
2022-12-22T06:39:18.464Z,10.54
2022-12-22T06:42:03.567Z,10.57
2022-12-22T06:44:31.246Z,10.65
2022-12-22T06:46:58.714Z,10.67
2022-12-22T06:49:26.362Z,10.58
2022-12-22T06:51:53.852Z,10.70
2022-12-22T06:54:26.329Z,10.74
2022-12-22T06:56:54.169Z,10.77
2022-12-22T06:59:21.565Z,10.59
2022-12-22T07:01:49.109Z,10.70
2022-12-22T07:04:20.626Z,10.77
2022-12-22T07:06:48.177Z,10.80
2022-12-22T07:09:15.633Z,10.80
2022-12-22T07:11:44.388Z,10.63
2022-12-22T07:14:12.099Z,10.51
2022-12-22T07:16:39.623Z,10.80
2022-12-22T07:19:07.112Z,10.09
2022-12-22T07:21:34.599Z,10.69
2022-12-22T07:24:02.020Z,10.88
2022-12-22T07:26:29.548Z,12.14
2022-12-22T07:28:58.358Z,12.52
2022-12-22T07:31:26.024Z,12.21
2022-12-22T07:33:53.484Z,12.58
2022-12-22T07:36:21.719Z,11.84
2022-12-22T07:38:51.031Z,11.66
2022-12-22T07:41:40.071Z,11.37
2022-12-22T07:44:08.902Z,11.30
2022-12-22T07:46:38.500Z,11.26
2022-12-22T07:49:24.515Z,11.13
2022-12-22T07:51:52.559Z,10.91
2022-12-22T07:54:24.696Z,10.81
2022-12-22T07:56:52.170Z,11.05
2022-12-22T07:59:21.259Z,11.08
2022-12-22T08:01:48.831Z,10.96
2022-12-22T08:04:16.740Z,10.84
2022-12-22T08:06:44.385Z,11.06
2022-12-22T08:09:16.499Z,11.13
2022-12-22T08:11:43.988Z,11.02
2022-12-22T08:14:11.396Z,10.89
2022-12-22T08:16:40.307Z,11.02
2022-12-22T08:19:07.994Z,11.09
2022-12-22T08:21:35.494Z,11.07
2022-12-22T08:24:03.104Z,11.10
2022-12-22T08:26:36.261Z,11.15
2022-12-22T08:29:08.441Z,10.92
2022-12-22T08:31:36.489Z,11.06
2022-12-22T08:34:08.622Z,11.20
2022-12-22T08:36:42.155Z,11.15
2022-12-22T08:39:09.793Z,11.20
2022-12-22T08:41:52.789Z,11.20
2022-12-22T08:44:22.828Z,11.30
2022-12-22T08:46:50.707Z,11.34
2022-12-22T08:49:20.501Z,11.22
2022-12-22T08:51:48.563Z,11.32
2022-12-22T08:54:16.429Z,11.30
2022-12-22T08:56:44.199Z,11.13
2022-12-22T08:59:11.871Z,11.35
2022-12-22T09:01:42.722Z,11.44
2022-12-22T09:04:11.031Z,11.53
2022-12-22T09:06:41.351Z,12.75
2022-12-22T09:09:11.029Z,13.08
2022-12-22T09:11:39.567Z,13.04
2022-12-22T09:14:08.217Z,14.04
2022-12-22T09:16:36.268Z,13.50
2022-12-22T09:19:04.651Z,13.38
2022-12-22T09:21:32.110Z,13.45
2022-12-22T09:24:00.889Z,13.95
2022-12-22T09:26:30.009Z,13.43
2022-12-22T09:28:58.707Z,13.25
2022-12-22T09:31:27.218Z,13.22
2022-12-22T09:33:54.831Z,12.56
2022-12-22T09:36:24.961Z,12.68
2022-12-22T09:38:52.723Z,12.54
2022-12-22T09:41:27.375Z,12.29
2022-12-22T09:43:56.291Z,12.09
2022-12-22T09:46:26.088Z,11.94
2022-12-22T09:48:55.078Z,11.66
2022-12-22T09:51:27.062Z,11.19
2022-12-22T09:53:58.894Z,10.61
2022-12-22T09:56:29.999Z,11.31
2022-12-22T09:58:58.159Z,11.40
2022-12-22T10:01:38.514Z,11.62
2022-12-22T10:04:15.807Z,11.56
2022-12-22T10:06:52.446Z,11.63
2022-12-22T10:12:15.995Z,11.69
2022-12-22T10:14:45.136Z,11.54
2022-12-22T10:17:17.524Z,11.45
2022-12-22T10:19:46.219Z,11.51
2022-12-22T10:22:23.858Z,11.59
2022-12-22T10:24:51.658Z,11.75
2022-12-22T10:27:28.483Z,11.78
2022-12-22T10:30:21.397Z,11.45
2022-12-22T10:33:03.783Z,11.52
2022-12-22T10:35:49.779Z,10.67
2022-12-22T10:38:22.400Z,11.05
2022-12-22T10:40:58.234Z,11.51
2022-12-22T10:43:33.400Z,11.79
2022-12-22T10:46:01.953Z,11.89
2022-12-22T10:48:31.616Z,11.88
2022-12-22T10:51:00.524Z,11.57
2022-12-22T10:53:43.980Z,11.78
2022-12-22T10:56:22.422Z,11.88
2022-12-22T10:58:53.115Z,11.64
2022-12-22T11:01:30.820Z,11.91
2022-12-22T11:03:59.524Z,11.81
2022-12-22T11:06:27.153Z,11.91
2022-12-22T11:09:05.660Z,11.88
2022-12-22T11:11:47.659Z,11.37
2022-12-22T11:14:28.673Z,11.76
2022-12-22T11:17:03.734Z,11.33
2022-12-22T11:19:49.841Z,11.68
2022-12-22T11:22:29.508Z,11.87
2022-12-22T11:25:16.086Z,11.94
2022-12-22T11:27:54.768Z,12.01
2022-12-22T11:30:32.145Z,11.67
2022-12-22T11:33:15.953Z,11.99
2022-12-22T11:35:52.850Z,11.93
2022-12-22T11:38:27.089Z,11.86
2022-12-22T11:41:01.799Z,11.98
2022-12-22T11:43:42.220Z,12.13
2022-12-22T11:46:22.232Z,12.06
2022-12-22T11:49:06.489Z,12.06
2022-12-22T11:51:51.794Z,11.87
2022-12-22T11:54:42.317Z,11.97
2022-12-22T11:57:23.562Z,11.94
2022-12-22T11:59:58.437Z,11.70
2022-12-22T12:03:01.135Z,12.09
2022-12-22T12:06:09.437Z,11.72
2022-12-22T12:08:50.916Z,11.54
2022-12-22T12:11:25.129Z,12.01
2022-12-22T12:14:02.791Z,12.12
2022-12-22T12:16:38.487Z,12.04
2022-12-22T12:19:33.104Z,11.95
2022-12-22T12:22:05.485Z,12.12
2022-12-22T12:24:50.869Z,12.12
2022-12-22T12:27:36.306Z,12.01
2022-12-22T12:30:36.845Z,12.09
2022-12-22T12:32:59.199Z,12.12
2022-12-22T12:35:44.031Z,11.95
2022-12-22T12:38:56.424Z,11.83
2022-12-22T12:41:11.014Z,12.19
2022-12-22T12:43:39.040Z,12.20
2022-12-22T12:46:40.070Z,12.05
2022-12-22T12:49:49.410Z,12.18
2022-12-22T12:52:18.188Z,12.24
2022-12-22T12:54:47.175Z,11.95
2022-12-22T12:57:29.315Z,12.23
2022-12-22T12:59:58.799Z,12.29
2022-12-22T13:02:38.252Z,12.25
2022-12-22T13:05:29.393Z,12.11
2022-12-22T13:08:29.473Z,12.25
2022-12-22T13:12:10.461Z,12.20
2022-12-22T13:14:54.919Z,12.21
2022-12-22T13:17:41.710Z,12.26
2022-12-22T13:20:15.697Z,12.03
2022-12-22T13:22:44.840Z,12.16
2022-12-22T13:25:17.311Z,12.17
2022-12-22T13:27:44.936Z,12.03
2022-12-22T13:30:15.747Z,12.00
2022-12-22T13:32:45.938Z,11.85
2022-12-22T13:35:38.508Z,11.95
2022-12-22T13:38:06.899Z,12.19
2022-12-22T13:40:43.249Z,11.97
2022-12-22T13:43:13.830Z,12.02
2022-12-22T13:45:44.955Z,12.09
2022-12-22T13:48:17.105Z,12.19
2022-12-22T13:50:48.123Z,12.16
2022-12-22T13:53:49.576Z,12.10
2022-12-22T13:56:14.143Z,11.94
2022-12-22T13:58:45.906Z,12.09
2022-12-22T14:01:19.364Z,12.27
2022-12-22T14:04:00.198Z,12.28
2022-12-22T14:06:31.807Z,12.35
2022-12-22T14:09:18.224Z,12.29
2022-12-22T14:11:52.525Z,12.19
2022-12-22T14:14:24.696Z,12.26
2022-12-22T14:16:54.065Z,12.18
2022-12-22T14:19:23.568Z,12.13
2022-12-22T14:21:59.767Z,12.21
2022-12-22T14:24:33.244Z,11.98
2022-12-22T14:27:05.194Z,11.67
2022-12-22T14:29:32.748Z,11.33
2022-12-22T14:32:02.653Z,11.58
2022-12-22T14:34:32.998Z,11.22
2022-12-22T14:37:01.611Z,11.37
2022-12-22T14:39:31.842Z,11.25
2022-12-22T14:42:02.563Z,10.98
2022-12-22T14:44:34.592Z,10.66
2022-12-22T14:47:08.475Z,10.59
2022-12-22T14:49:36.582Z,10.70
2022-12-22T14:52:15.137Z,11.15
2022-12-22T14:54:47.416Z,11.40
2022-12-22T14:57:28.975Z,11.40
2022-12-22T15:00:05.748Z,11.66
2022-12-22T15:02:39.509Z,11.26
2022-12-22T15:05:25.003Z,11.63
2022-12-22T15:08:05.237Z,11.55
2022-12-22T15:10:39.610Z,11.40
2022-12-22T15:13:23.522Z,11.57
2022-12-22T15:15:53.003Z,11.62
2022-12-22T15:18:26.610Z,11.78
2022-12-22T15:20:54.374Z,11.23
2022-12-22T15:23:21.866Z,11.35
2022-12-22T15:25:49.397Z,11.18
2022-12-22T15:28:17.241Z,10.80
2022-12-22T15:30:44.924Z,10.85
2022-12-22T15:33:16.441Z,11.18
2022-12-22T15:35:44.604Z,10.94
2022-12-22T15:38:14.827Z,11.07
2022-12-22T15:40:42.541Z,10.80
2022-12-22T15:43:28.897Z,10.66
2022-12-22T15:45:58.088Z,11.08
2022-12-22T15:48:30.219Z,10.80
2022-12-22T15:50:58.573Z,10.82
2022-12-22T15:53:26.278Z,10.48
2022-12-22T15:55:58.460Z,10.11
2022-12-22T15:58:28.975Z,10.24
2022-12-22T16:00:56.645Z,10.19
2022-12-22T16:03:24.227Z,10.04
2022-12-22T16:05:54.463Z,9.95
2022-12-22T16:08:28.664Z,9.69
2022-12-22T16:10:56.131Z,9.53
2022-12-22T16:13:27.283Z,9.63
2022-12-22T16:15:57.047Z,9.68
2022-12-22T16:18:24.567Z,9.56
2022-12-22T16:20:53.530Z,9.47
2022-12-22T16:23:24.288Z,10.04
2022-12-22T16:25:58.769Z,10.05
2022-12-22T16:28:28.859Z,10.10
2022-12-22T16:30:56.414Z,10.04
2022-12-22T16:33:23.947Z,10.32
2022-12-22T16:35:52.661Z,10.15
2022-12-22T16:38:20.379Z,9.85
2022-12-22T16:40:49.895Z,10.09
2022-12-22T16:46:12.861Z,10.04
2022-12-22T16:48:46.518Z,10.22
2022-12-22T16:51:19.776Z,10.44
2022-12-22T16:53:47.754Z,10.33
2022-12-22T16:56:18.664Z,10.50
2022-12-22T16:58:46.585Z,10.54
2022-12-22T17:01:26.164Z,10.51
2022-12-22T17:03:54.005Z,10.51
2022-12-22T17:06:22.873Z,10.37
2022-12-22T17:08:50.596Z,10.27
2022-12-22T17:11:20.930Z,10.31
2022-12-22T17:13:48.817Z,10.07
2022-12-22T17:16:23.847Z,10.06
2022-12-22T17:18:51.561Z,10.08
2022-12-22T17:21:21.288Z,9.70
2022-12-22T17:23:52.130Z,10.23
2022-12-22T17:26:21.965Z,10.52
2022-12-22T17:28:50.145Z,10.40
2022-12-22T17:31:20.348Z,10.23
2022-12-22T17:33:48.473Z,10.12
2022-12-22T17:36:29.173Z,10.23
2022-12-22T17:38:58.769Z,9.67
2022-12-22T17:41:26.525Z,9.95
2022-12-22T17:43:53.977Z,10.24
2022-12-22T17:46:22.830Z,10.30
2022-12-22T17:48:50.672Z,10.69
2022-12-22T17:51:21.509Z,11.04
2022-12-22T17:53:49.349Z,11.02
2022-12-22T17:56:22.889Z,11.17
2022-12-22T17:58:51.091Z,11.15
2022-12-22T18:01:23.796Z,11.08
2022-12-22T18:03:51.777Z,11.01
2022-12-22T18:06:21.646Z,10.71
2022-12-22T18:08:50.135Z,10.70
2022-12-22T18:11:18.278Z,10.85
2022-12-22T18:13:47.126Z,10.72
2022-12-22T18:16:17.231Z,10.73
2022-12-22T18:18:45.374Z,10.71
2022-12-22T18:21:18.153Z,10.58
2022-12-22T18:23:49.979Z,10.68
2022-12-22T18:26:22.672Z,10.58
2022-12-22T18:28:51.856Z,10.81
2022-12-22T18:31:20.276Z,10.78
2022-12-22T18:33:48.148Z,10.87
2022-12-22T18:36:19.434Z,10.97
2022-12-22T18:38:48.871Z,10.87
2022-12-22T18:41:21.446Z,10.40
2022-12-22T18:43:49.228Z,10.68
2022-12-22T18:46:18.280Z,9.79
2022-12-22T18:48:46.190Z,10.18
2022-12-22T18:51:18.924Z,10.67
2022-12-22T18:53:46.570Z,10.33
2022-12-22T18:56:15.224Z,10.65
2022-12-22T18:58:43.444Z,10.22
2022-12-22T19:01:20.056Z,10.88
2022-12-22T19:03:48.590Z,10.93
2022-12-22T19:06:18.529Z,10.97
2022-12-22T19:08:48.274Z,11.54
2022-12-22T19:11:17.443Z,12.87
2022-12-22T19:13:47.578Z,12.04
2022-12-22T19:16:17.055Z,11.59
2022-12-22T19:18:46.172Z,11.46
2022-12-22T19:21:14.795Z,11.39
2022-12-22T19:23:42.192Z,11.22
2022-12-22T19:26:20.596Z,10.94
2022-12-22T19:28:51.987Z,10.51
2022-12-22T19:31:23.792Z,10.57
2022-12-22T19:33:53.997Z,10.49
2022-12-22T19:36:25.677Z,9.65
2022-12-22T19:39:02.755Z,10.29
2022-12-22T19:41:37.844Z,10.46
2022-12-22T19:44:06.261Z,10.04
2022-12-22T19:46:35.701Z,10.21
2022-12-22T19:49:04.639Z,10.01
2022-12-22T19:51:32.428Z,9.75
2022-12-22T19:53:59.863Z,9.90
2022-12-22T19:56:29.760Z,9.74
2022-12-22T19:58:59.865Z,9.65
2022-12-22T20:01:27.649Z,9.96
2022-12-22T20:03:55.929Z,9.65
2022-12-22T20:06:24.922Z,9.54
2022-12-22T20:08:52.338Z,9.80
2022-12-22T20:11:21.187Z,9.79
2022-12-22T20:13:49.028Z,9.28
2022-12-22T20:16:17.722Z,9.46
2022-12-22T20:18:46.651Z,9.15
2022-12-22T20:21:25.540Z,9.84
2022-12-22T20:23:56.272Z,9.13
2022-12-22T20:26:26.392Z,8.89
2022-12-22T20:28:54.490Z,9.60
2022-12-22T20:31:24.184Z,9.17
2022-12-22T20:33:54.829Z,9.30
2022-12-22T20:36:26.339Z,9.78
2022-12-22T20:38:58.474Z,9.02
2022-12-22T20:41:26.806Z,9.62
2022-12-22T20:43:54.648Z,9.63
2022-12-22T20:46:24.871Z,9.97
2022-12-22T20:48:56.045Z,10.07
2022-12-22T20:51:25.738Z,9.89
2022-12-22T20:53:54.655Z,9.59
2022-12-22T20:56:26.559Z,10.23
2022-12-22T20:58:55.004Z,9.95
2022-12-22T21:01:23.545Z,9.65
2022-12-22T21:03:51.431Z,9.84
2022-12-22T21:06:27.757Z,9.59
2022-12-22T21:08:59.020Z,10.15
2022-12-22T21:11:27.722Z,10.29
2022-12-22T21:13:57.231Z,9.91
2022-12-22T21:16:27.549Z,10.11
2022-12-22T21:18:55.900Z,9.47
2022-12-22T21:21:23.767Z,9.24
2022-12-22T21:23:51.449Z,9.66
2022-12-22T21:26:24.203Z,9.17
2022-12-22T21:28:52.935Z,9.87
2022-12-22T21:31:21.033Z,9.96
2022-12-22T21:33:50.314Z,9.48
2022-12-22T21:36:22.456Z,9.41
2022-12-22T21:38:52.929Z,9.55
2022-12-22T21:41:42.689Z,8.63
2022-12-22T21:44:12.394Z,9.75
2022-12-22T21:46:40.757Z,10.10
2022-12-22T21:49:13.744Z,10.00
2022-12-22T21:51:41.323Z,9.48
2022-12-22T21:54:08.758Z,9.99
2022-12-22T21:56:37.598Z,10.00
2022-12-22T21:59:05.175Z,10.15
2022-12-22T22:01:33.621Z,10.02
2022-12-22T22:04:01.248Z,10.00
2022-12-22T22:06:28.733Z,10.10
2022-12-22T22:08:56.193Z,10.13
2022-12-22T22:11:26.222Z,9.99
2022-12-22T22:13:55.097Z,9.86
2022-12-22T22:16:22.574Z,10.10
2022-12-22T22:18:50.814Z,10.25
2022-12-22T22:21:18.907Z,9.74
2022-12-22T22:23:46.387Z,12.47
2022-12-22T22:26:13.828Z,13.13
2022-12-22T22:28:41.221Z,12.53
2022-12-22T22:31:13.127Z,13.28
2022-12-22T22:33:40.586Z,13.45
2022-12-22T22:36:09.201Z,13.94
2022-12-22T22:38:36.753Z,13.41
2022-12-22T22:41:04.344Z,12.66
2022-12-22T22:43:31.765Z,11.66
2022-12-22T22:45:59.208Z,11.33
2022-12-22T22:48:28.093Z,10.67
2022-12-22T22:50:55.502Z,10.67
2022-12-22T22:53:23.005Z,10.49
2022-12-22T22:55:50.466Z,9.82
2022-12-22T22:58:19.105Z,9.39
2022-12-22T23:00:47.636Z,9.42
2022-12-22T23:03:15.378Z,9.97
2022-12-22T23:05:45.198Z,9.55
2022-12-22T23:08:12.683Z,10.14
2022-12-22T23:10:42.061Z,9.30
2022-12-22T23:13:10.279Z,9.91
2022-12-22T23:15:37.749Z,9.98
2022-12-22T23:18:05.526Z,10.23
2022-12-22T23:20:33.005Z,10.15
2022-12-22T23:23:01.771Z,10.25
2022-12-22T23:25:29.259Z,9.82
2022-12-22T23:27:56.853Z,10.09
2022-12-22T23:30:24.403Z,9.81
2022-12-22T23:32:52.081Z,10.18
2022-12-22T23:35:19.925Z,10.16
2022-12-22T23:37:47.370Z,10.21
2022-12-22T23:43:04.211Z,10.50
2022-12-22T23:45:32.294Z,10.10
2022-12-22T23:48:00.171Z,10.24
2022-12-22T23:50:28.456Z,10.22
2022-12-22T23:52:55.924Z,10.46
2022-12-22T23:55:25.135Z,10.46
2022-12-22T23:57:53.694Z,10.42
